Stations météo

réclame
Mon MeteoGroup
Ernage, Belgique (6459): Température de l'air & dewpoint: 18.11.2017 15:00:00 - 24.11.2017 15:00:00 (CET)Ernage, Belgique (6459): Vitesse du vent & gusts: 18.11.2017 15:00:00 - 24.11.2017 15:00:00 (CET)Ernage, Belgique (6459): Direction du vent: 18.11.2017 15:00:00 - 24.11.2017 15:00:00 (CET)Ernage, Belgique (6459): reduced air pressure: 18.11.2017 15:00:00 - 24.11.2017 15:00:00 (CET)Ernage, Belgique (6459): Ensoleillement: 18.11.2017 15:00:00 - 24.11.2017 15:00:00 (CET)Ernage, Belgique (6459): Quantités de précipitations: 18.11.2017 15:00:00 - 24.11.2017 15:00:00 (CET)
Date & Time tt [°C] td [°C] ff [km/h] ff [knt] fx [km/h] fx [knt] dd ppp [hPa] sd [min] rr [mm]
24.11.2017 15:00:00 - - - - - - - - - -
24.11.2017 14:00:00 8,7 6,2 10 5 19 10 W 1012,2 53 0,0
24.11.2017 13:00:00 8,5 6,7 14 8 22 12 W 1012,1 58 0,0
24.11.2017 12:00:00 7,5 6,8 11 6 19 10 WSW 1012,1 17 0,0
24.11.2017 11:00:00 7,1 7,0 11 6 16 9 WSW 1011,2 0 0,0
24.11.2017 10:00:00 6,7 6,7 12 7 18 10 W 1010,7 0 0,0
24.11.2017 09:00:00 6,4 6,4 9 5 19 10 WNW 1009,5 0 0,2
24.11.2017 08:00:00 6,8 6,7 5 3 16 9 SSW 1008,2 0 1,3
24.11.2017 07:00:00 6,8 6,5 11 6 29 16 WNW 1007,7 0 0,2
24.11.2017 06:00:00 7,4 7,4 20 11 27 15 WNW 1007,1 0 4,0
24.11.2017 05:00:00 7,6 7,5 5 3 13 7 NW 1006,4 0 3,6
24.11.2017 04:00:00 8,2 7,7 8 5 24 13 S 1007,1 0 0,6
24.11.2017 03:00:00 8,4 8,1 14 8 20 11 S 1008,2 0 2,2
24.11.2017 02:00:00 8,8 7,2 8 5 16 8 S 1008,8 0 0,4
24.11.2017 01:00:00 9,1 7,2 11 6 22 12 S 1009,6 0 0,0
24.11.2017 00:00:00 9,3 7,4 11 6 22 12 S 1010,0 0 0,0
23.11.2017 23:00:00 9,4 8,6 13 7 27 14 S 1010,5 0 0,0
23.11.2017 22:00:00 9,5 7,3 13 7 29 15 S 1010,6 0 0,0
23.11.2017 21:00:00 9,5 7,2 13 7 22 12 S 1010,2 0 0,0
23.11.2017 20:00:00 9,1 7,4 13 7 21 11 S 1009,7 0 0,0
23.11.2017 19:00:00 8,9 6,7 14 8 25 14 SW 1009,3 0 0,0
23.11.2017 18:00:00 10,4 9,1 15 8 22 12 SW 1008,6 0 0,0
23.11.2017 17:00:00 10,7 9,1 16 9 40 22 SW 1007,5 8 0,0
23.11.2017 16:00:00 11,1 9,5 26 14 50 27 WSW 1006,2 6 0,0
23.11.2017 15:00:00 12,4 10,8 31 17 48 26 S 1004,5 9 0,1
23.11.2017 14:00:00 12,4 10,6 31 17 58 31 SSW 1004,2 6 0,5
23.11.2017 13:00:00 14,0 9,5 36 19 53 29 SSW 1003,2 12 0,0
23.11.2017 12:00:00 12,5 8,5 27 15 52 28 S 1003,1 3 0,0
23.11.2017 11:00:00 12,3 7,6 34 18 60 32 S 1002,5 0 0,0
23.11.2017 10:00:00 12,4 6,7 37 20 61 33 S 1001,4 4 0,1
23.11.2017 09:00:00 12,2 5,9 37 20 61 33 S 1000,4 0 0,0
23.11.2017 08:00:00 12,0 5,2 34 18 59 32 S 999,3 0 0,0
23.11.2017 07:00:00 11,6 4,7 29 16 53 29 S 999,2 0 0,0
23.11.2017 06:00:00 11,7 4,4 29 15 54 29 S 999,6 0 0,0
23.11.2017 05:00:00 11,4 4,1 27 14 50 27 S 1000,0 0 0,0
23.11.2017 04:00:00 10,8 3,8 28 15 51 28 SSE 1000,7 0 0,0
23.11.2017 03:00:00 10,8 3,2 30 16 50 27 SSE 1001,0 0 0,0
23.11.2017 02:00:00 11,0 2,9 27 14 46 25 SSE 1001,0 0 0,0
23.11.2017 01:00:00 11,1 3,0 25 14 40 22 S 1002,1 0 0,0
23.11.2017 00:00:00 11,5 2,8 25 14 42 23 S 1002,9 0 0,0
22.11.2017 23:00:00 12,2 2,4 23 12 51 27 S 1003,1 0 0,0
22.11.2017 22:00:00 11,5 2,7 26 14 46 25 S 1002,8 0 0,0
22.11.2017 21:00:00 10,6 2,6 25 13 40 21 S 1003,4 0 0,0
22.11.2017 20:00:00 9,9 3,4 22 12 41 22 SSE 1004,3 0 0,0
22.11.2017 19:00:00 10,1 4,2 25 14 36 19 SSE 1004,8 0 0,0
22.11.2017 18:00:00 9,9 4,4 24 13 33 18 SSE 1005,2 0 0,0
22.11.2017 17:00:00 9,9 4,8 17 9 36 19 SSE 1005,8 35 0,0
22.11.2017 16:00:00 11,5 4,9 22 12 44 24 S 1006,2 60 0,0
22.11.2017 15:00:00 12,5 5,9 22 12 40 21 S 1006,6 60 0,0
22.11.2017 14:00:00 12,0 6,1 22 12 38 20 S 1007,5 60 0,0
22.11.2017 13:00:00 11,3 6,6 18 10 40 22 S 1008,2 60 0,0
22.11.2017 12:00:00 10,5 6,8 22 12 36 19 S 1009,0 60 3,4
22.11.2017 11:00:00 9,2 6,7 23 12 40 22 S 1009,7 60 0,0
22.11.2017 10:00:00 8,5 6,5 27 14 44 24 S 1009,6 17 0,0
22.11.2017 09:00:00 8,6 6,6 28 15 44 24 SSW 1009,7 0 0,0
22.11.2017 08:00:00 8,7 7,0 21 12 35 19 S 1009,7 0 0,0
22.11.2017 07:00:00 9,0 7,0 22 12 38 21 S 1009,2 0 0,0
22.11.2017 06:00:00 9,3 7,2 24 13 38 20 S 1009,6 0 0,0
22.11.2017 05:00:00 9,2 7,3 23 13 37 20 S 1010,1 0 0,0
22.11.2017 04:00:00 9,2 7,2 22 12 38 21 SSW 1010,4 0 0,0
22.11.2017 03:00:00 9,2 7,1 23 12 36 19 S 1010,7 0 0,0
22.11.2017 02:00:00 9,1 7,1 22 12 37 20 S 1011,3 0 0,0
22.11.2017 01:00:00 8,9 7,1 22 12 37 20 SSW 1011,7 0 0,0
22.11.2017 00:00:00 8,8 7,0 23 13 38 20 S 1011,7 0 0,0
21.11.2017 23:00:00 8,6 6,9 20 11 36 19 S 1011,9 0 0,0
21.11.2017 22:00:00 8,7 6,9 23 12 41 22 S 1012,2 0 0,0
21.11.2017 21:00:00 8,6 6,8 23 12 38 21 S 1012,8 0 0,0
21.11.2017 20:00:00 8,6 6,7 21 12 36 19 S 1013,0 0 0,0
21.11.2017 19:00:00 8,5 6,9 22 12 33 18 SSW 1013,6 0 0,0
21.11.2017 18:00:00 8,4 7,0 19 11 34 19 SSW 1013,6 0 0,0
21.11.2017 17:00:00 8,5 7,1 22 12 31 17 S 1013,7 0 0,0
21.11.2017 16:00:00 8,7 7,3 21 12 38 20 SSW 1014,0 0 0,0
21.11.2017 15:00:00 - - - - - - - - 0 -
21.11.2017 14:00:00 9,1 7,9 20 11 34 18 SSW 1014,6 0 0,0
21.11.2017 13:00:00 9,0 8,1 22 12 37 20 SSW 1014,8 0 0,0
21.11.2017 12:00:00 8,7 8,5 22 12 38 21 SSW 1015,2 0 0,0
21.11.2017 11:00:00 8,8 8,7 23 13 37 20 SSW 1015,4 0 0,1
21.11.2017 10:00:00 9,0 9,0 23 12 41 22 SSW 1014,9 0 0,1
21.11.2017 09:00:00 9,1 9,1 24 13 37 20 SSW 1014,6 0 0,1
21.11.2017 08:00:00 9,2 9,2 22 12 35 19 SSW 1014,4 0 0,1
21.11.2017 07:00:00 9,2 9,2 25 14 40 21 SW 1014,2 0 0,0
21.11.2017 06:00:00 9,3 9,3 20 11 38 21 SW 1014,2 0 0,9
21.11.2017 05:00:00 9,6 9,6 22 12 37 20 SW 1014,2 0 0,6
21.11.2017 04:00:00 9,4 9,4 23 12 - - SW 1014,4 0 0,3
21.11.2017 03:00:00 9,2 9,2 19 10 32 17 SW 1014,7 0 0,7
21.11.2017 02:00:00 9,1 9,1 18 10 33 18 SW 1014,6 0 1,0
21.11.2017 01:00:00 9,0 9,0 18 10 36 20 SW 1014,7 0 0,2
21.11.2017 00:00:00 9,0 8,9 26 14 38 20 SW 1014,7 0 0,1
20.11.2017 23:00:00 8,8 8,6 25 14 42 23 SW 1014,5 0 0,1
20.11.2017 22:00:00 8,6 8,5 25 13 50 27 SW 1014,6 0 0,5
20.11.2017 21:00:00 8,6 8,5 26 14 44 24 SW 1014,6 0 0,3
20.11.2017 20:00:00 8,5 8,3 25 14 44 24 SW 1014,6 0 0,4
20.11.2017 19:00:00 8,4 8,3 23 12 40 22 SSW 1014,5 0 0,4
20.11.2017 18:00:00 8,2 8,0 24 13 37 20 SSW 1015,1 0 0,2
20.11.2017 17:00:00 7,5 7,5 24 13 43 23 SSW 1015,5 0 0,2
20.11.2017 16:00:00 6,7 6,7 23 12 37 20 SSW 1015,8 0 0,1
20.11.2017 15:00:00 6,4 6,3 24 13 42 23 SSW 1016,5 0 0,3
20.11.2017 14:00:00 5,8 5,7 23 12 40 22 SSW 1017,6 0 0,5
20.11.2017 13:00:00 5,5 5,4 25 14 38 21 S 1018,1 0 0,3
20.11.2017 12:00:00 5,0 4,3 21 11 34 18 S 1019,3 0 0,1
20.11.2017 11:00:00 4,4 3,2 14 8 24 13 S 1020,3 0 0,0
20.11.2017 10:00:00 3,5 2,5 13 7 21 11 S 1020,9 0 0,0
20.11.2017 09:00:00 2,8 1,8 13 7 19 10 S 1021,8 0 0,0
20.11.2017 08:00:00 2,7 1,6 9 5 14 8 S 1022,3 0 0,0
20.11.2017 07:00:00 2,2 1,3 11 6 18 10 S 1022,1 0 0,0
20.11.2017 06:00:00 1,9 1,0 12 6 21 11 S 1022,3 0 0,0
20.11.2017 05:00:00 1,7 1,0 13 7 19 10 S 1022,7 0 0,0
20.11.2017 04:00:00 1,1 0,7 9 5 15 8 S 1023,3 0 0,0
20.11.2017 03:00:00 1,1 0,6 11 6 15 8 S 1023,7 0 0,0
20.11.2017 02:00:00 1,6 1,0 11 6 20 11 SSW 1023,8 0 0,0
20.11.2017 01:00:00 1,7 1,3 14 8 19 10 SSW 1024,6 0 0,0
20.11.2017 00:00:00 1,5 1,2 12 7 18 10 SSW 1024,9 0 0,0
19.11.2017 23:00:00 1,6 1,1 11 6 18 10 SSW 1024,7 0 0,0
19.11.2017 22:00:00 2,1 1,5 13 7 19 10 WSW 1024,8 0 0,0
19.11.2017 21:00:00 2,2 1,4 14 7 19 10 SW 1024,3 0 0,0
19.11.2017 20:00:00 2,7 1,8 14 8 20 11 WSW 1024,1 0 0,0
19.11.2017 19:00:00 3,6 2,2 14 8 21 11 WSW 1023,7 0 0,0
19.11.2017 18:00:00 4,3 2,8 16 8 24 13 WSW 1023,0 0 0,0
19.11.2017 17:00:00 5,4 3,0 18 10 29 16 WSW 1022,6 34 0,0
19.11.2017 16:00:00 6,4 3,3 21 12 32 17 WSW 1022,4 42 0,0
19.11.2017 15:00:00 6,9 3,5 24 13 35 19 WSW 1022,0 20 0,0
19.11.2017 14:00:00 6,7 4,0 18 10 29 16 WSW 1021,9 11 0,0
19.11.2017 13:00:00 5,9 3,4 18 10 26 14 W 1021,9 4 0,0
19.11.2017 12:00:00 5,5 2,6 20 11 28 15 W 1021,9 21 0,0
19.11.2017 11:00:00 4,5 2,3 16 8 24 13 W 1021,9 8 0,0
19.11.2017 10:00:00 3,8 1,3 16 9 24 13 W 1020,8 34 0,0
19.11.2017 09:00:00 1,8 0,4 11 6 16 9 WSW 1020,8 0 0,0
19.11.2017 08:00:00 1,6 0,1 10 6 17 9 WSW 1020,3 0 0,0
19.11.2017 07:00:00 2,1 0,5 11 6 16 9 W 1019,6 0 0,0
19.11.2017 06:00:00 3,1 1,5 11 6 18 10 W 1019,3 0 0,0
19.11.2017 05:00:00 3,0 1,9 14 7 17 9 W 1018,9 0 0,0
19.11.2017 04:00:00 3,9 2,8 12 7 19 11 W 1018,8 0 0,0
19.11.2017 03:00:00 4,6 4,5 13 7 18 10 W 1018,5 0 0,0
19.11.2017 02:00:00 5,1 4,9 14 8 24 13 W 1018,0 0 0,0
19.11.2017 01:00:00 5,8 5,7 14 8 21 12 W 1018,0 0 0,0
19.11.2017 00:00:00 6,0 6,0 14 7 28 15 WSW 1018,1 0 0,0
18.11.2017 23:00:00 6,2 6,2 16 8 23 12 WSW 1018,3 0 0,0
18.11.2017 22:00:00 6,2 6,2 15 8 24 13 SW 1018,4 0 0,1
18.11.2017 21:00:00 5,8 5,8 12 7 19 10 WSW 1019,2 0 0,3
18.11.2017 20:00:00 5,7 5,7 12 6 22 12 SW 1019,5 0 1,0
18.11.2017 19:00:00 5,7 5,7 14 8 29 15 SW 1020,2 0 0,7
18.11.2017 18:00:00 5,9 4,7 18 10 38 20 SSW 1020,4 0 0,0
18.11.2017 17:00:00 6,4 3,7 20 11 31 17 SW 1020,6 0 0,0
18.11.2017 16:00:00 6,4 3,5 18 10 29 16 SW 1021,0 0 0,0
18.11.2017 15:00:00 6,3 3,1 21 11 36 19 SW 1021,3 0 0,0

tt = Température de l'air
td = dewpoint
ff = Vitesse du vent
fx = gusts
dd = Direction du vent
ppp = reduced air pressure
sd = Ensoleillement
rr = Quantités de précipitations

stations d'obs. à proximité